sensor_id;sensor_type;location;lat;lon;timestamp;pressure;altitude;pressure_sealevel;temperature;humidity
62926;BME280;55732;52.248;-0.844;2022-08-26T00:01:09;101132.31;;;13.96;84.59
62926;BME280;55732;52.248;-0.844;2022-08-26T00:03:35;101136.91;;;13.98;84.25
62926;BME280;55732;52.248;-0.844;2022-08-26T00:06:00;101131.79;;;13.97;83.92
62926;BME280;55732;52.248;-0.844;2022-08-26T00:08:26;101126.30;;;13.95;83.88
62926;BME280;55732;52.248;-0.844;2022-08-26T00:10:51;101128.79;;;13.95;83.88
62926;BME280;55732;52.248;-0.844;2022-08-26T00:13:16;101129.67;;;13.96;84.04
62926;BME280;55732;52.248;-0.844;2022-08-26T00:15:43;101128.08;;;13.95;83.89
62926;BME280;55732;52.248;-0.844;2022-08-26T00:18:09;101130.05;;;13.92;83.87
62926;BME280;55732;52.248;-0.844;2022-08-26T00:20:34;101132.55;;;13.89;83.76
62926;BME280;55732;52.248;-0.844;2022-08-26T00:23:00;101130.44;;;13.86;83.39
62926;BME280;55732;52.248;-0.844;2022-08-26T00:25:27;101132.92;;;13.83;83.48
62926;BME280;55732;52.248;-0.844;2022-08-26T00:27:54;101131.72;;;13.80;83.10
62926;BME280;55732;52.248;-0.844;2022-08-26T00:30:24;101133.52;;;13.73;82.97
62926;BME280;55732;52.248;-0.844;2022-08-26T00:32:50;101137.27;;;13.68;83.40
62926;BME280;55732;52.248;-0.844;2022-08-26T00:35:16;101135.12;;;13.69;83.85
62926;BME280;55732;52.248;-0.844;2022-08-26T00:37:42;101136.89;;;13.70;83.87
62926;BME280;55732;52.248;-0.844;2022-08-26T00:40:11;101138.14;;;13.70;83.78
62926;BME280;55732;52.248;-0.844;2022-08-26T00:42:37;101136.18;;;13.71;83.96
62926;BME280;55732;52.248;-0.844;2022-08-26T00:45:04;101136.54;;;13.72;83.50
62926;BME280;55732;52.248;-0.844;2022-08-26T00:47:33;101138.48;;;13.73;83.24
62926;BME280;55732;52.248;-0.844;2022-08-26T00:50:02;101138.66;;;13.71;83.16
62926;BME280;55732;52.248;-0.844;2022-08-26T00:52:29;101137.24;;;13.70;83.54
62926;BME280;55732;52.248;-0.844;2022-08-26T00:55:03;101139.54;;;13.71;83.53
62926;BME280;55732;52.248;-0.844;2022-08-26T00:57:32;101140.61;;;13.71;83.77
62926;BME280;55732;52.248;-0.844;2022-08-26T01:00:00;101139.02;;;13.72;83.42
62926;BME280;55732;52.248;-0.844;2022-08-26T01:02:28;101135.48;;;13.72;83.52
62926;BME280;55732;52.248;-0.844;2022-08-26T01:04:56;101138.31;;;13.71;83.35
62926;BME280;55732;52.248;-0.844;2022-08-26T01:07:25;101136.38;;;13.69;83.30
62926;BME280;55732;52.248;-0.844;2022-08-26T01:09:51;101136.39;;;13.67;83.46
62926;BME280;55732;52.248;-0.844;2022-08-26T01:12:17;101135.70;;;13.66;83.33
62926;BME280;55732;52.248;-0.844;2022-08-26T01:14:43;101136.94;;;13.64;83.45
62926;BME280;55732;52.248;-0.844;2022-08-26T01:17:10;101140.30;;;13.62;83.56
62926;BME280;55732;52.248;-0.844;2022-08-26T01:19:58;101138.19;;;13.59;83.02
62926;BME280;55732;52.248;-0.844;2022-08-26T01:22:43;101143.54;;;13.52;83.01
62926;BME280;55732;52.248;-0.844;2022-08-26T01:25:15;101143.02;;;13.47;82.94
62926;BME280;55732;52.248;-0.844;2022-08-26T01:27:41;101136.31;;;13.45;83.23
62926;BME280;55732;52.248;-0.844;2022-08-26T01:30:08;101134.74;;;13.42;83.28
62926;BME280;55732;52.248;-0.844;2022-08-26T01:32:36;101136.52;;;13.39;83.43
62926;BME280;55732;52.248;-0.844;2022-08-26T01:35:03;101139.00;;;13.37;83.33
62926;BME280;55732;52.248;-0.844;2022-08-26T01:37:35;101141.31;;;13.32;83.18
62926;BME280;55732;52.248;-0.844;2022-08-26T01:40:03;101140.98;;;13.25;83.31
62926;BME280;55732;52.248;-0.844;2022-08-26T01:42:29;101142.59;;;13.21;83.78
62926;BME280;55732;52.248;-0.844;2022-08-26T01:47:32;101141.90;;;13.20;83.67
62926;BME280;55732;52.248;-0.844;2022-08-26T01:50:03;101142.95;;;13.19;83.87
62926;BME280;55732;52.248;-0.844;2022-08-26T01:52:30;101142.25;;;13.19;84.06
62926;BME280;55732;52.248;-0.844;2022-08-26T01:54:59;101145.41;;;13.22;84.38
62926;BME280;55732;52.248;-0.844;2022-08-26T01:57:25;101146.99;;;13.25;84.38
62926;BME280;55732;52.248;-0.844;2022-08-26T01:59:54;101148.05;;;13.27;83.80
62926;BME280;55732;52.248;-0.844;2022-08-26T02:02:22;101151.77;;;13.27;84.05
62926;BME280;55732;52.248;-0.844;2022-08-26T02:04:51;101153.00;;;13.29;83.94
62926;BME280;55732;52.248;-0.844;2022-08-26T02:07:18;101152.27;;;13.34;84.32
62926;BME280;55732;52.248;-0.844;2022-08-26T02:09:45;101149.26;;;13.39;84.74
62926;BME280;55732;52.248;-0.844;2022-08-26T02:12:12;101152.61;;;13.44;84.90
62926;BME280;55732;52.248;-0.844;2022-08-26T02:14:42;101153.98;;;13.48;85.20
62926;BME280;55732;52.248;-0.844;2022-08-26T02:17:09;101157.16;;;13.52;85.21
62926;BME280;55732;52.248;-0.844;2022-08-26T02:19:39;101157.52;;;13.55;85.12
62926;BME280;55732;52.248;-0.844;2022-08-26T02:22:09;101160.33;;;13.57;85.18
62926;BME280;55732;52.248;-0.844;2022-08-26T02:24:50;101163.48;;;13.61;85.09
62926;BME280;55732;52.248;-0.844;2022-08-26T02:27:19;101164.55;;;13.64;84.81
62926;BME280;55732;52.248;-0.844;2022-08-26T02:29:54;101162.23;;;13.66;84.65
62926;BME280;55732;52.248;-0.844;2022-08-26T02:32:21;101163.48;;;13.68;84.69
62926;BME280;55732;52.248;-0.844;2022-08-26T02:34:46;101161.69;;;13.69;84.65
62926;BME280;55732;52.248;-0.844;2022-08-26T02:37:12;101159.41;;;13.67;84.36
62926;BME280;55732;52.248;-0.844;2022-08-26T02:39:40;101162.77;;;13.65;84.44
62926;BME280;55732;52.248;-0.844;2022-08-26T02:42:06;101161.19;;;13.63;84.18
62926;BME280;55732;52.248;-0.844;2022-08-26T02:44:31;101161.90;;;13.61;84.10
62926;BME280;55732;52.248;-0.844;2022-08-26T02:46:57;101158.89;;;13.61;84.09
62926;BME280;55732;52.248;-0.844;2022-08-26T02:49:24;101158.36;;;13.58;83.96
62926;BME280;55732;52.248;-0.844;2022-08-26T02:51:51;101159.61;;;13.57;84.17
62926;BME280;55732;52.248;-0.844;2022-08-26T02:54:18;101157.86;;;13.56;84.11
62926;BME280;55732;52.248;-0.844;2022-08-26T02:56:45;101157.88;;;13.53;83.81
62926;BME280;55732;52.248;-0.844;2022-08-26T02:59:11;101157.17;;;13.53;83.96
62926;BME280;55732;52.248;-0.844;2022-08-26T03:01:38;101157.52;;;13.53;83.74
62926;BME280;55732;52.248;-0.844;2022-08-26T03:04:06;101155.21;;;13.51;83.77
62926;BME280;55732;52.248;-0.844;2022-08-26T03:06:33;101153.65;;;13.46;83.91
62926;BME280;55732;52.248;-0.844;2022-08-26T03:08:59;101152.79;;;13.41;84.29
62926;BME280;55732;52.248;-0.844;2022-08-26T03:11:24;101154.73;;;13.37;84.18
62926;BME280;55732;52.248;-0.844;2022-08-26T03:13:50;101158.27;;;13.36;84.46
62926;BME280;55732;52.248;-0.844;2022-08-26T03:16:16;101158.98;;;13.36;84.35
62926;BME280;55732;52.248;-0.844;2022-08-26T03:18:42;101158.45;;;13.35;84.55
62926;BME280;55732;52.248;-0.844;2022-08-26T03:21:12;101160.92;;;13.35;84.15
62926;BME280;55732;52.248;-0.844;2022-08-26T03:23:39;101156.90;;;13.31;83.98
62926;BME280;55732;52.248;-0.844;2022-08-26T03:26:07;101154.25;;;13.27;84.16
62926;BME280;55732;52.248;-0.844;2022-08-26T03:28:33;101152.13;;;13.24;84.08
62926;BME280;55732;52.248;-0.844;2022-08-26T03:30:59;101151.95;;;13.23;84.02
62926;BME280;55732;52.248;-0.844;2022-08-26T03:33:25;101154.81;;;13.18;84.01
62926;BME280;55732;52.248;-0.844;2022-08-26T03:35:52;101156.91;;;13.13;83.82
62926;BME280;55732;52.248;-0.844;2022-08-26T03:38:20;101152.84;;;13.09;83.99
62926;BME280;55732;52.248;-0.844;2022-08-26T03:40:47;101149.85;;;13.08;83.94
62926;BME280;55732;52.248;-0.844;2022-08-26T03:43:13;101148.44;;;13.04;83.57
62926;BME280;55732;52.248;-0.844;2022-08-26T03:45:40;101142.98;;;12.94;83.44
62926;BME280;55732;52.248;-0.844;2022-08-26T03:48:07;101144.05;;;12.90;83.82
62926;BME280;55732;52.248;-0.844;2022-08-26T03:50:33;101143.69;;;12.88;84.16
62926;BME280;55732;52.248;-0.844;2022-08-26T03:53:00;101145.30;;;12.86;84.28
62926;BME280;55732;52.248;-0.844;2022-08-26T03:55:27;101153.43;;;12.81;83.70
62926;BME280;55732;52.248;-0.844;2022-08-26T03:57:56;101153.08;;;12.76;83.98
62926;BME280;55732;52.248;-0.844;2022-08-26T04:00:22;101149.19;;;12.75;84.45
62926;BME280;55732;52.248;-0.844;2022-08-26T04:02:48;101149.17;;;12.77;84.58
62926;BME280;55732;52.248;-0.844;2022-08-26T04:05:16;101151.48;;;12.78;84.28
62926;BME280;55732;52.248;-0.844;2022-08-26T04:07:45;101149.55;;;12.80;84.61
62926;BME280;55732;52.248;-0.844;2022-08-26T04:10:13;101148.66;;;12.80;84.60
62926;BME280;55732;52.248;-0.844;2022-08-26T04:12:39;101141.59;;;12.79;84.22
62926;BME280;55732;52.248;-0.844;2022-08-26T04:15:12;101144.23;;;12.80;84.46
62926;BME280;55732;52.248;-0.844;2022-08-26T04:17:38;101137.70;;;12.80;84.36
62926;BME280;55732;52.248;-0.844;2022-08-26T04:20:05;101134.70;;;12.79;84.55
62926;BME280;55732;52.248;-0.844;2022-08-26T04:22:31;101130.98;;;12.77;84.18
62926;BME280;55732;52.248;-0.844;2022-08-26T04:24:57;101133.11;;;12.74;83.97
62926;BME280;55732;52.248;-0.844;2022-08-26T04:27:22;101134.73;;;12.71;84.13
62926;BME280;55732;52.248;-0.844;2022-08-26T04:29:48;101139.30;;;12.68;84.16
62926;BME280;55732;52.248;-0.844;2022-08-26T04:32:14;101139.84;;;12.64;83.88
62926;BME280;55732;52.248;-0.844;2022-08-26T04:34:40;101134.90;;;12.58;84.03
62926;BME280;55732;52.248;-0.844;2022-08-26T04:37:06;101134.36;;;12.57;84.29
62926;BME280;55732;52.248;-0.844;2022-08-26T04:39:31;101131.36;;;12.56;84.21
62926;BME280;55732;52.248;-0.844;2022-08-26T04:41:57;101131.18;;;12.53;84.02
62926;BME280;55732;52.248;-0.844;2022-08-26T04:44:25;101128.20;;;12.48;83.95
62926;BME280;55732;52.248;-0.844;2022-08-26T04:46:52;101128.19;;;12.44;84.24
62926;BME280;55732;52.248;-0.844;2022-08-26T04:49:19;101123.06;;;12.41;84.15
62926;BME280;55732;52.248;-0.844;2022-08-26T04:51:45;101124.66;;;12.39;83.96
62926;BME280;55732;52.248;-0.844;2022-08-26T04:54:13;101123.77;;;12.33;83.94
62926;BME280;55732;52.248;-0.844;2022-08-26T04:56:40;101129.23;;;12.30;84.32
62926;BME280;55732;52.248;-0.844;2022-08-26T04:59:08;101126.77;;;12.30;84.42
62926;BME280;55732;52.248;-0.844;2022-08-26T05:01:36;101127.30;;;12.28;84.59
62926;BME280;55732;52.248;-0.844;2022-08-26T05:04:03;101131.02;;;12.27;84.47
62926;BME280;55732;52.248;-0.844;2022-08-26T05:06:30;101133.48;;;12.22;84.10
62926;BME280;55732;52.248;-0.844;2022-08-26T05:08:55;101133.83;;;12.20;84.29
62926;BME280;55732;52.248;-0.844;2022-08-26T05:11:21;101132.06;;;12.19;84.38
62926;BME280;55732;52.248;-0.844;2022-08-26T05:13:46;101134.35;;;12.19;84.48
62926;BME280;55732;52.248;-0.844;2022-08-26T05:16:14;101134.36;;;12.21;84.54
62926;BME280;55732;52.248;-0.844;2022-08-26T05:18:40;101136.48;;;12.22;84.59
62926;BME280;55732;52.248;-0.844;2022-08-26T05:21:18;101132.79;;;12.24;84.54
62926;BME280;55732;52.248;-0.844;2022-08-26T05:23:45;101132.79;;;12.26;84.57
62926;BME280;55732;52.248;-0.844;2022-08-26T05:26:11;101127.14;;;12.26;84.42
62926;BME280;55732;52.248;-0.844;2022-08-26T05:28:36;101130.14;;;12.27;84.17
62926;BME280;55732;52.248;-0.844;2022-08-26T05:31:20;101131.17;;;12.28;84.26
62926;BME280;55732;52.248;-0.844;2022-08-26T05:33:46;101135.26;;;12.35;84.57
62926;BME280;55732;52.248;-0.844;2022-08-26T05:36:18;101136.84;;;12.41;84.09
62926;BME280;55732;52.248;-0.844;2022-08-26T05:38:44;101135.79;;;12.50;84.01
62926;BME280;55732;52.248;-0.844;2022-08-26T05:41:24;101136.48;;;12.61;84.04
62926;BME280;55732;52.248;-0.844;2022-08-26T05:43:56;101139.83;;;12.78;83.75
62926;BME280;55732;52.248;-0.844;2022-08-26T05:46:23;101134.45;;;13.14;83.18
62926;BME280;55732;52.248;-0.844;2022-08-26T05:48:49;101138.92;;;13.56;83.12
62926;BME280;55732;52.248;-0.844;2022-08-26T05:51:15;101145.16;;;13.80;82.37
62926;BME280;55732;52.248;-0.844;2022-08-26T05:53:41;101142.79;;;13.93;81.88
62926;BME280;55732;52.248;-0.844;2022-08-26T05:56:09;101142.82;;;14.16;81.00
62926;BME280;55732;52.248;-0.844;2022-08-26T05:58:36;101140.59;;;14.29;80.38
62926;BME280;55732;52.248;-0.844;2022-08-26T06:01:11;101139.51;;;14.32;80.57
62926;BME280;55732;52.248;-0.844;2022-08-26T06:03:40;101143.02;;;14.37;80.58
62926;BME280;55732;52.248;-0.844;2022-08-26T06:06:14;101144.23;;;14.43;80.39
62926;BME280;55732;52.248;-0.844;2022-08-26T06:08:40;101142.98;;;14.45;79.86
62926;BME280;55732;52.248;-0.844;2022-08-26T06:11:08;101142.98;;;14.47;79.99
62926;BME280;55732;52.248;-0.844;2022-08-26T06:13:35;101145.23;;;14.51;80.26
62926;BME280;55732;52.248;-0.844;2022-08-26T06:16:07;101142.52;;;14.60;80.18
62926;BME280;55732;52.248;-0.844;2022-08-26T06:18:36;101137.61;;;14.73;80.08
62926;BME280;55732;52.248;-0.844;2022-08-26T06:21:15;101134.54;;;14.96;79.53
62926;BME280;55732;52.248;-0.844;2022-08-26T06:23:42;101132.35;;;15.18;79.09
62926;BME280;55732;52.248;-0.844;2022-08-26T06:26:27;101133.55;;;15.21;79.23
62926;BME280;55732;52.248;-0.844;2022-08-26T06:28:53;101134.10;;;15.35;78.96
62926;BME280;55732;52.248;-0.844;2022-08-26T06:31:21;101139.35;;;15.41;78.93
62926;BME280;55732;52.248;-0.844;2022-08-26T06:33:48;101141.67;;;15.55;78.95
62926;BME280;55732;52.248;-0.844;2022-08-26T06:36:15;101137.91;;;15.72;78.64
62926;BME280;55732;52.248;-0.844;2022-08-26T06:38:41;101143.39;;;15.88;78.36
62926;BME280;55732;52.248;-0.844;2022-08-26T06:41:07;101147.59;;;16.04;77.95
62926;BME280;55732;52.248;-0.844;2022-08-26T06:43:35;101148.98;;;16.17;77.48
62926;BME280;55732;52.248;-0.844;2022-08-26T06:46:04;101145.36;;;16.33;77.18
62926;BME280;55732;52.248;-0.844;2022-08-26T06:48:30;101145.60;;;16.51;76.84
62926;BME280;55732;52.248;-0.844;2022-08-26T06:53:59;101141.23;;;16.70;76.31
62926;BME280;55732;52.248;-0.844;2022-08-26T06:56:34;101142.25;;;16.83;76.17
62926;BME280;55732;52.248;-0.844;2022-08-26T06:58:59;101144.48;;;16.87;76.15
62926;BME280;55732;52.248;-0.844;2022-08-26T07:01:30;101147.04;;;16.84;76.30
62926;BME280;55732;52.248;-0.844;2022-08-26T07:03:58;101144.57;;;16.82;76.24
62926;BME280;55732;52.248;-0.844;2022-08-26T07:06:25;101148.54;;;16.79;76.35
62926;BME280;55732;52.248;-0.844;2022-08-26T07:08:58;101148.94;;;16.76;76.37
62926;BME280;55732;52.248;-0.844;2022-08-26T07:11:29;101150.02;;;16.75;76.31
62926;BME280;55732;52.248;-0.844;2022-08-26T07:13:55;101149.11;;;16.76;76.39
62926;BME280;55732;52.248;-0.844;2022-08-26T07:16:22;101156.88;;;17.00;76.03
62926;BME280;55732;52.248;-0.844;2022-08-26T07:18:47;101158.63;;;17.81;74.53
62926;BME280;55732;52.248;-0.844;2022-08-26T07:21:17;101158.52;;;17.94;74.42
62926;BME280;55732;52.248;-0.844;2022-08-26T07:23:43;101158.78;;;17.91;74.56
62926;BME280;55732;52.248;-0.844;2022-08-26T07:26:22;101157.58;;;17.89;74.43
62926;BME280;55732;52.248;-0.844;2022-08-26T07:28:49;101159.85;;;18.07;74.04
62926;BME280;55732;52.248;-0.844;2022-08-26T07:31:18;101163.34;;;18.26;73.67
62926;BME280;55732;52.248;-0.844;2022-08-26T07:33:44;101165.90;;;18.23;73.51
62926;BME280;55732;52.248;-0.844;2022-08-26T07:36:11;101165.58;;;18.14;73.34
62926;BME280;55732;52.248;-0.844;2022-08-26T07:38:37;101165.85;;;18.17;73.30
62926;BME280;55732;52.248;-0.844;2022-08-26T07:41:05;101161.56;;;18.17;73.26
62926;BME280;55732;52.248;-0.844;2022-08-26T07:43:31;101162.27;;;18.18;73.28
62926;BME280;55732;52.248;-0.844;2022-08-26T07:45:57;101167.85;;;18.45;72.80
62926;BME280;55732;52.248;-0.844;2022-08-26T07:48:23;101164.55;;;18.92;71.99
62926;BME280;55732;52.248;-0.844;2022-08-26T07:50:49;101167.61;;;19.04;71.72
62926;BME280;55732;52.248;-0.844;2022-08-26T07:53:15;101164.29;;;19.02;71.63
62926;BME280;55732;52.248;-0.844;2022-08-26T07:55:41;101166.61;;;18.96;71.73
62926;BME280;55732;52.248;-0.844;2022-08-26T07:58:07;101169.35;;;18.79;71.82
62926;BME280;55732;52.248;-0.844;2022-08-26T08:00:33;101175.86;;;18.62;72.09
62926;BME280;55732;52.248;-0.844;2022-08-26T08:02:59;101181.98;;;18.43;72.44
62926;BME280;55732;52.248;-0.844;2022-08-26T08:05:25;101179.02;;;18.33;72.52
62926;BME280;55732;52.248;-0.844;2022-08-26T08:07:51;101184.74;;;18.32;72.78
62926;BME280;55732;52.248;-0.844;2022-08-26T08:10:23;101184.94;;;18.31;72.72
62926;BME280;55732;52.248;-0.844;2022-08-26T08:12:49;101183.55;;;18.23;72.94
62926;BME280;55732;52.248;-0.844;2022-08-26T08:15:17;101183.86;;;18.17;73.16
62926;BME280;55732;52.248;-0.844;2022-08-26T08:17:44;101182.77;;;18.25;72.85
62926;BME280;55732;52.248;-0.844;2022-08-26T08:20:10;101181.56;;;18.97;71.62
62926;BME280;55732;52.248;-0.844;2022-08-26T08:22:36;101178.20;;;19.02;71.36
62926;BME280;55732;52.248;-0.844;2022-08-26T08:25:02;101181.82;;;19.07;71.31
62926;BME280;55732;52.248;-0.844;2022-08-26T08:27:28;101177.88;;;19.88;69.97
62926;BME280;55732;52.248;-0.844;2022-08-26T08:29:53;101177.07;;;21.29;67.57
62926;BME280;55732;52.248;-0.844;2022-08-26T08:32:21;101180.69;;;21.81;66.25
62926;BME280;55732;52.248;-0.844;2022-08-26T08:34:46;101176.11;;;23.66;62.35
62926;BME280;55732;52.248;-0.844;2022-08-26T08:37:12;101176.04;;;25.49;59.00
62926;BME280;55732;52.248;-0.844;2022-08-26T08:39:37;101173.95;;;27.84;54.34
62926;BME280;55732;52.248;-0.844;2022-08-26T08:44:51;101176.92;;;30.12;48.01
62926;BME280;55732;52.248;-0.844;2022-08-26T08:47:33;101176.70;;;30.32;47.25
62926;BME280;55732;52.248;-0.844;2022-08-26T08:50:25;101174.99;;;31.39;44.66
62926;BME280;55732;52.248;-0.844;2022-08-26T08:53:13;101172.59;;;32.69;42.42
62926;BME280;55732;52.248;-0.844;2022-08-26T08:58:25;101173.85;;;34.47;39.03
62926;BME280;55732;52.248;-0.844;2022-08-26T09:00:58;101170.48;;;34.96;37.70
62926;BME280;55732;52.248;-0.844;2022-08-26T09:03:46;101172.09;;;35.58;36.64
62926;BME280;55732;52.248;-0.844;2022-08-26T09:06:14;101172.23;;;36.23;35.37
62926;BME280;55732;52.248;-0.844;2022-08-26T09:08:46;101172.41;;;35.52;35.59
62926;BME280;55732;52.248;-0.844;2022-08-26T09:11:13;101174.20;;;34.13;36.07
62926;BME280;55732;52.248;-0.844;2022-08-26T09:13:44;101169.16;;;33.70;36.46
62926;BME280;55732;52.248;-0.844;2022-08-26T09:16:40;101169.62;;;33.91;36.04
62926;BME280;55732;52.248;-0.844;2022-08-26T09:19:19;101165.77;;;33.06;36.67
62926;BME280;55732;52.248;-0.844;2022-08-26T09:21:57;101163.82;;;31.49;38.74
62926;BME280;55732;52.248;-0.844;2022-08-26T09:24:24;101167.02;;;30.35;39.49
62926;BME280;55732;52.248;-0.844;2022-08-26T09:26:49;101161.67;;;29.56;40.77
62926;BME280;55732;52.248;-0.844;2022-08-26T09:29:29;101161.77;;;30.10;40.48
62926;BME280;55732;52.248;-0.844;2022-08-26T09:32:17;101159.30;;;29.97;40.08
62926;BME280;55732;52.248;-0.844;2022-08-26T09:42:37;101151.31;;;28.25;42.69
62926;BME280;55732;52.248;-0.844;2022-08-26T09:45:06;101151.70;;;29.58;41.05
62926;BME280;55732;52.248;-0.844;2022-08-26T09:50:32;101143.80;;;32.85;36.56
62926;BME280;55732;52.248;-0.844;2022-08-26T09:55:48;101149.73;;;34.13;33.81
62926;BME280;55732;52.248;-0.844;2022-08-26T09:58:40;101149.73;;;34.78;32.84
62926;BME280;55732;52.248;-0.844;2022-08-26T10:01:08;101148.11;;;34.60;32.58
62926;BME280;55732;52.248;-0.844;2022-08-26T10:03:39;101141.23;;;35.47;31.41
62926;BME280;55732;52.248;-0.844;2022-08-26T10:08:46;101147.41;;;35.17;30.91
62926;BME280;55732;52.248;-0.844;2022-08-26T10:11:37;101145.18;;;34.79;30.88
62926;BME280;55732;52.248;-0.844;2022-08-26T10:14:12;101140.48;;;35.68;29.76
62926;BME280;55732;52.248;-0.844;2022-08-26T10:16:50;101143.45;;;35.13;29.98
62926;BME280;55732;52.248;-0.844;2022-08-26T10:19:43;101144.25;;;34.56;30.49
62926;BME280;55732;52.248;-0.844;2022-08-26T10:23:24;101138.64;;;35.31;28.51
62926;BME280;55732;52.248;-0.844;2022-08-26T10:25:47;101140.31;;;35.68;27.42
62926;BME280;55732;52.248;-0.844;2022-08-26T10:28:29;101138.00;;;35.73;27.82
62926;BME280;55732;52.248;-0.844;2022-08-26T10:31:08;101136.42;;;35.10;28.33
62926;BME280;55732;52.248;-0.844;2022-08-26T10:33:38;101134.30;;;33.63;29.92
62926;BME280;55732;52.248;-0.844;2022-08-26T10:36:09;101134.97;;;32.91;30.52
62926;BME280;55732;52.248;-0.844;2022-08-26T10:38:58;101131.80;;;32.34;31.20
62926;BME280;55732;52.248;-0.844;2022-08-26T10:41:31;101129.86;;;31.84;32.02
62926;BME280;55732;52.248;-0.844;2022-08-26T10:43:59;101126.27;;;31.23;33.08
62926;BME280;55732;52.248;-0.844;2022-08-26T10:46:35;101126.44;;;30.74;33.81
62926;BME280;55732;52.248;-0.844;2022-08-26T10:49:12;101122.52;;;29.98;34.64
62926;BME280;55732;52.248;-0.844;2022-08-26T10:54:27;101111.98;;;28.06;37.35
62926;BME280;55732;52.248;-0.844;2022-08-26T10:59:57;101103.06;;;26.96;39.16
62926;BME280;55732;52.248;-0.844;2022-08-26T11:02:29;101098.22;;;26.83;39.65
62926;BME280;55732;52.248;-0.844;2022-08-26T11:05:01;101101.15;;;26.70;40.03
62926;BME280;55732;52.248;-0.844;2022-08-26T11:22:51;101097.23;;;24.89;43.17
62926;BME280;55732;52.248;-0.844;2022-08-26T11:25:22;101093.60;;;24.51;43.53
62926;BME280;55732;52.248;-0.844;2022-08-26T11:40:10;101093.54;;;23.25;46.51
62926;BME280;55732;52.248;-0.844;2022-08-26T11:42:42;101094.80;;;23.18;47.10
62926;BME280;55732;52.248;-0.844;2022-08-26T11:45:33;101095.58;;;23.13;47.63
62926;BME280;55732;52.248;-0.844;2022-08-26T11:48:34;101099.48;;;23.06;47.46
62926;BME280;55732;52.248;-0.844;2022-08-26T11:51:02;101092.82;;;22.94;47.27
62926;BME280;55732;52.248;-0.844;2022-08-26T11:53:31;101093.33;;;22.87;47.93
62926;BME280;55732;52.248;-0.844;2022-08-26T11:55:58;101089.88;;;22.87;47.82
62926;BME280;55732;52.248;-0.844;2022-08-26T11:58:26;101088.58;;;22.92;47.61
62926;BME280;55732;52.248;-0.844;2022-08-26T12:03:39;101083.91;;;23.24;47.11
62926;BME280;55732;52.248;-0.844;2022-08-26T12:06:20;101083.98;;;23.42;47.19
62926;BME280;55732;52.248;-0.844;2022-08-26T12:08:47;101080.77;;;23.53;46.73
62926;BME280;55732;52.248;-0.844;2022-08-26T12:11:31;101080.84;;;23.59;46.89
62926;BME280;55732;52.248;-0.844;2022-08-26T12:14:06;101079.53;;;23.60;46.87
62926;BME280;55732;52.248;-0.844;2022-08-26T12:16:37;101079.73;;;23.60;46.69
62926;BME280;55732;52.248;-0.844;2022-08-26T12:19:26;101074.02;;;23.63;46.55
62926;BME280;55732;52.248;-0.844;2022-08-26T12:21:57;101071.29;;;23.64;46.53
62926;BME280;55732;52.248;-0.844;2022-08-26T12:24:25;101076.16;;;23.60;46.65
62926;BME280;55732;52.248;-0.844;2022-08-26T12:27:05;101075.06;;;23.52;46.41
62926;BME280;55732;52.248;-0.844;2022-08-26T12:29:35;101075.58;;;23.45;46.59
62926;BME280;55732;52.248;-0.844;2022-08-26T12:32:12;101074.59;;;23.39;47.01
62926;BME280;55732;52.248;-0.844;2022-08-26T12:34:40;101075.36;;;23.30;47.41
62926;BME280;55732;52.248;-0.844;2022-08-26T12:37:09;101069.42;;;23.19;47.54
62926;BME280;55732;52.248;-0.844;2022-08-26T12:39:39;101070.70;;;23.11;47.39
62926;BME280;55732;52.248;-0.844;2022-08-26T12:42:20;101070.25;;;23.00;47.66
62926;BME280;55732;52.248;-0.844;2022-08-26T12:44:59;101069.73;;;22.91;48.08
62926;BME280;55732;52.248;-0.844;2022-08-26T12:47:33;101071.16;;;22.84;48.25
62926;BME280;55732;52.248;-0.844;2022-08-26T12:50:15;101073.17;;;22.79;48.74
62926;BME280;55732;52.248;-0.844;2022-08-26T12:55:43;101070.17;;;22.69;48.57
62926;BME280;55732;52.248;-0.844;2022-08-26T13:00:54;101072.55;;;22.68;49.41
62926;BME280;55732;52.248;-0.844;2022-08-26T13:08:38;101067.52;;;22.73;49.34
62926;BME280;55732;52.248;-0.844;2022-08-26T13:11:15;101065.29;;;22.79;49.20
62926;BME280;55732;52.248;-0.844;2022-08-26T13:13:54;101064.35;;;22.88;48.95
62926;BME280;55732;52.248;-0.844;2022-08-26T13:16:21;101065.04;;;22.97;49.00
62926;BME280;55732;52.248;-0.844;2022-08-26T13:18:52;101061.19;;;23.02;49.37
62926;BME280;55732;52.248;-0.844;2022-08-26T13:21:22;101057.27;;;23.05;49.10
62926;BME280;55732;52.248;-0.844;2022-08-26T13:23:48;101056.05;;;23.13;49.02
62926;BME280;55732;52.248;-0.844;2022-08-26T13:26:15;101052.70;;;23.23;48.36
62926;BME280;55732;52.248;-0.844;2022-08-26T13:28:41;101052.82;;;23.36;48.30
62926;BME280;55732;52.248;-0.844;2022-08-26T13:31:08;101050.06;;;23.48;47.90
62926;BME280;55732;52.248;-0.844;2022-08-26T13:33:35;101046.13;;;23.52;48.13
62926;BME280;55732;52.248;-0.844;2022-08-26T13:36:02;101047.39;;;23.56;47.91
62926;BME280;55732;52.248;-0.844;2022-08-26T13:38:27;101044.27;;;23.58;47.61
62926;BME280;55732;52.248;-0.844;2022-08-26T13:40:53;101044.20;;;23.55;47.79
62926;BME280;55732;52.248;-0.844;2022-08-26T13:43:19;101041.27;;;23.52;47.76
62926;BME280;55732;52.248;-0.844;2022-08-26T13:45:44;101038.88;;;23.50;48.05
62926;BME280;55732;52.248;-0.844;2022-08-26T13:48:13;101036.95;;;23.44;48.15
62926;BME280;55732;52.248;-0.844;2022-08-26T13:50:39;101031.57;;;23.40;48.59
62926;BME280;55732;52.248;-0.844;2022-08-26T13:53:04;101029.32;;;23.35;48.30
62926;BME280;55732;52.248;-0.844;2022-08-26T13:55:30;101031.59;;;23.28;48.25
62926;BME280;55732;52.248;-0.844;2022-08-26T13:57:55;101028.64;;;23.23;48.43
62926;BME280;55732;52.248;-0.844;2022-08-26T14:00:21;101024.13;;;23.19;48.18
62926;BME280;55732;52.248;-0.844;2022-08-26T14:02:47;101025.42;;;23.14;48.40
62926;BME280;55732;52.248;-0.844;2022-08-26T14:05:13;101028.53;;;23.10;48.35
62926;BME280;55732;52.248;-0.844;2022-08-26T14:07:39;101024.73;;;23.06;48.18